sensor_id;sensor_type;location;lat;lon;timestamp;P1;durP1;ratioP1;P2;durP2;ratioP2
17528;SDS011;8882;53.192;8.184;2023-08-30T00:01:39;8.37;;;4.93;;
17528;SDS011;8882;53.192;8.184;2023-08-30T00:04:04;9.13;;;5.13;;
17528;SDS011;8882;53.192;8.184;2023-08-30T00:06:30;5.20;;;4.70;;
17528;SDS011;8882;53.192;8.184;2023-08-30T00:08:56;5.80;;;4.77;;
17528;SDS011;8882;53.192;8.184;2023-08-30T00:11:23;6.07;;;4.53;;
17528;SDS011;8882;53.192;8.184;2023-08-30T00:13:48;7.87;;;4.60;;
17528;SDS011;8882;53.192;8.184;2023-08-30T00:16:14;5.03;;;4.63;;
17528;SDS011;8882;53.192;8.184;2023-08-30T00:18:41;7.60;;;4.97;;
17528;SDS011;8882;53.192;8.184;2023-08-30T00:21:07;5.10;;;4.60;;
17528;SDS011;8882;53.192;8.184;2023-08-30T00:23:33;6.17;;;4.80;;
17528;SDS011;8882;53.192;8.184;2023-08-30T00:25:59;7.47;;;5.00;;
17528;SDS011;8882;53.192;8.184;2023-08-30T00:28:24;8.83;;;4.87;;
17528;SDS011;8882;53.192;8.184;2023-08-30T00:30:53;4.97;;;4.47;;
17528;SDS011;8882;53.192;8.184;2023-08-30T00:33:20;5.30;;;4.80;;
17528;SDS011;8882;53.192;8.184;2023-08-30T00:35:46;5.57;;;4.77;;
17528;SDS011;8882;53.192;8.184;2023-08-30T00:38:11;8.60;;;4.60;;
17528;SDS011;8882;53.192;8.184;2023-08-30T00:40:39;4.53;;;4.13;;
17528;SDS011;8882;53.192;8.184;2023-08-30T00:43:06;6.07;;;4.10;;
17528;SDS011;8882;53.192;8.184;2023-08-30T00:45:32;5.60;;;4.53;;
17528;SDS011;8882;53.192;8.184;2023-08-30T00:47:59;5.60;;;4.13;;
17528;SDS011;8882;53.192;8.184;2023-08-30T00:50:24;5.87;;;4.07;;
17528;SDS011;8882;53.192;8.184;2023-08-30T00:52:50;4.87;;;3.93;;
17528;SDS011;8882;53.192;8.184;2023-08-30T00:55:15;7.57;;;4.27;;
17528;SDS011;8882;53.192;8.184;2023-08-30T00:57:41;5.43;;;3.90;;
17528;SDS011;8882;53.192;8.184;2023-08-30T01:00:08;5.83;;;4.30;;
17528;SDS011;8882;53.192;8.184;2023-08-30T01:02:35;4.70;;;3.97;;
17528;SDS011;8882;53.192;8.184;2023-08-30T01:05:02;4.23;;;3.50;;
17528;SDS011;8882;53.192;8.184;2023-08-30T01:07:28;3.83;;;3.53;;
17528;SDS011;8882;53.192;8.184;2023-08-30T01:09:53;5.93;;;3.53;;
17528;SDS011;8882;53.192;8.184;2023-08-30T01:12:23;5.43;;;3.70;;
17528;SDS011;8882;53.192;8.184;2023-08-30T01:14:58;7.37;;;4.30;;
17528;SDS011;8882;53.192;8.184;2023-08-30T01:17:27;3.70;;;3.40;;
17528;SDS011;8882;53.192;8.184;2023-08-30T01:20:04;5.27;;;4.17;;
17528;SDS011;8882;53.192;8.184;2023-08-30T01:25:29;7.67;;;4.17;;
17528;SDS011;8882;53.192;8.184;2023-08-30T01:28:01;6.20;;;4.13;;
17528;SDS011;8882;53.192;8.184;2023-08-30T01:30:29;5.07;;;3.77;;
17528;SDS011;8882;53.192;8.184;2023-08-30T01:32:58;5.20;;;3.67;;
17528;SDS011;8882;53.192;8.184;2023-08-30T01:35:25;4.00;;;3.60;;
17528;SDS011;8882;53.192;8.184;2023-08-30T01:37:57;5.27;;;4.43;;
17528;SDS011;8882;53.192;8.184;2023-08-30T01:40:23;6.70;;;4.17;;
17528;SDS011;8882;53.192;8.184;2023-08-30T01:42:50;6.00;;;3.97;;
17528;SDS011;8882;53.192;8.184;2023-08-30T01:45:16;3.67;;;3.37;;
17528;SDS011;8882;53.192;8.184;2023-08-30T01:47:43;4.13;;;3.73;;
17528;SDS011;8882;53.192;8.184;2023-08-30T01:50:10;5.13;;;3.77;;
17528;SDS011;8882;53.192;8.184;2023-08-30T01:52:37;4.93;;;3.97;;
17528;SDS011;8882;53.192;8.184;2023-08-30T01:55:03;5.07;;;4.53;;
17528;SDS011;8882;53.192;8.184;2023-08-30T01:57:30;5.03;;;3.80;;
17528;SDS011;8882;53.192;8.184;2023-08-30T01:59:56;5.87;;;4.00;;
17528;SDS011;8882;53.192;8.184;2023-08-30T02:02:21;6.90;;;4.33;;
17528;SDS011;8882;53.192;8.184;2023-08-30T02:04:47;6.77;;;4.20;;
17528;SDS011;8882;53.192;8.184;2023-08-30T02:09:49;5.73;;;4.13;;
17528;SDS011;8882;53.192;8.184;2023-08-30T02:12:22;5.20;;;4.57;;
17528;SDS011;8882;53.192;8.184;2023-08-30T02:14:50;7.20;;;4.67;;
17528;SDS011;8882;53.192;8.184;2023-08-30T02:17:17;7.03;;;4.73;;
17528;SDS011;8882;53.192;8.184;2023-08-30T02:19:43;8.80;;;4.97;;
17528;SDS011;8882;53.192;8.184;2023-08-30T02:22:09;5.63;;;4.60;;
17528;SDS011;8882;53.192;8.184;2023-08-30T02:24:35;5.67;;;4.57;;
17528;SDS011;8882;53.192;8.184;2023-08-30T02:27:01;5.90;;;4.67;;
17528;SDS011;8882;53.192;8.184;2023-08-30T02:29:26;5.83;;;4.80;;
17528;SDS011;8882;53.192;8.184;2023-08-30T02:31:52;5.20;;;4.60;;
17528;SDS011;8882;53.192;8.184;2023-08-30T02:34:17;5.57;;;4.93;;
17528;SDS011;8882;53.192;8.184;2023-08-30T02:36:43;5.40;;;4.90;;
17528;SDS011;8882;53.192;8.184;2023-08-30T02:39:08;5.10;;;4.43;;
17528;SDS011;8882;53.192;8.184;2023-08-30T02:41:34;8.03;;;5.27;;
17528;SDS011;8882;53.192;8.184;2023-08-30T02:44:00;9.33;;;5.50;;
17528;SDS011;8882;53.192;8.184;2023-08-30T02:46:25;6.17;;;5.57;;
17528;SDS011;8882;53.192;8.184;2023-08-30T02:48:51;8.13;;;5.37;;
17528;SDS011;8882;53.192;8.184;2023-08-30T02:51:16;6.40;;;5.57;;
17528;SDS011;8882;53.192;8.184;2023-08-30T02:53:42;6.70;;;5.47;;
17528;SDS011;8882;53.192;8.184;2023-08-30T02:56:08;7.90;;;6.13;;
17528;SDS011;8882;53.192;8.184;2023-08-30T02:58:33;8.67;;;5.93;;
17528;SDS011;8882;53.192;8.184;2023-08-30T03:00:59;7.33;;;6.07;;
17528;SDS011;8882;53.192;8.184;2023-08-30T03:03:26;7.47;;;6.47;;
17528;SDS011;8882;53.192;8.184;2023-08-30T03:05:51;7.13;;;5.87;;
17528;SDS011;8882;53.192;8.184;2023-08-30T03:08:17;11.37;;;6.63;;
17528;SDS011;8882;53.192;8.184;2023-08-30T03:10:42;8.67;;;6.50;;
17528;SDS011;8882;53.192;8.184;2023-08-30T03:13:08;8.00;;;5.60;;
17528;SDS011;8882;53.192;8.184;2023-08-30T03:15:33;8.10;;;6.63;;
17528;SDS011;8882;53.192;8.184;2023-08-30T03:17:59;8.83;;;6.87;;
17528;SDS011;8882;53.192;8.184;2023-08-30T03:20:25;7.97;;;6.50;;
17528;SDS011;8882;53.192;8.184;2023-08-30T03:22:53;8.37;;;6.60;;
17528;SDS011;8882;53.192;8.184;2023-08-30T03:25:20;9.30;;;6.67;;
17528;SDS011;8882;53.192;8.184;2023-08-30T03:27:46;8.40;;;6.13;;
17528;SDS011;8882;53.192;8.184;2023-08-30T03:30:11;6.83;;;6.13;;
17528;SDS011;8882;53.192;8.184;2023-08-30T03:32:37;9.23;;;6.73;;
17528;SDS011;8882;53.192;8.184;2023-08-30T03:35:03;7.20;;;6.47;;
17528;SDS011;8882;53.192;8.184;2023-08-30T03:37:29;8.67;;;6.90;;
17528;SDS011;8882;53.192;8.184;2023-08-30T03:39:54;8.23;;;6.77;;
17528;SDS011;8882;53.192;8.184;2023-08-30T03:42:20;7.67;;;6.87;;
17528;SDS011;8882;53.192;8.184;2023-08-30T03:44:45;11.63;;;6.73;;
17528;SDS011;8882;53.192;8.184;2023-08-30T03:47:11;8.93;;;6.80;;
17528;SDS011;8882;53.192;8.184;2023-08-30T03:49:36;7.90;;;7.00;;
17528;SDS011;8882;53.192;8.184;2023-08-30T03:52:02;10.30;;;7.83;;
17528;SDS011;8882;53.192;8.184;2023-08-30T03:54:27;9.90;;;7.20;;
17528;SDS011;8882;53.192;8.184;2023-08-30T03:56:53;12.63;;;7.57;;
17528;SDS011;8882;53.192;8.184;2023-08-30T03:59:19;10.57;;;7.47;;
17528;SDS011;8882;53.192;8.184;2023-08-30T04:01:44;9.87;;;7.33;;
17528;SDS011;8882;53.192;8.184;2023-08-30T04:04:10;8.33;;;7.13;;
17528;SDS011;8882;53.192;8.184;2023-08-30T04:06:35;10.13;;;7.17;;
17528;SDS011;8882;53.192;8.184;2023-08-30T04:09:01;9.03;;;7.30;;
17528;SDS011;8882;53.192;8.184;2023-08-30T04:11:26;9.57;;;7.40;;
17528;SDS011;8882;53.192;8.184;2023-08-30T04:13:52;10.90;;;7.80;;
17528;SDS011;8882;53.192;8.184;2023-08-30T04:16:17;8.93;;;7.57;;
17528;SDS011;8882;53.192;8.184;2023-08-30T04:18:43;11.23;;;8.70;;
17528;SDS011;8882;53.192;8.184;2023-08-30T04:21:09;9.27;;;7.80;;
17528;SDS011;8882;53.192;8.184;2023-08-30T04:23:34;11.33;;;8.13;;
17528;SDS011;8882;53.192;8.184;2023-08-30T04:26:00;10.50;;;8.20;;
17528;SDS011;8882;53.192;8.184;2023-08-30T04:28:26;13.23;;;7.77;;
17528;SDS011;8882;53.192;8.184;2023-08-30T04:30:55;10.80;;;7.57;;
17528;SDS011;8882;53.192;8.184;2023-08-30T04:33:21;9.37;;;7.73;;
17528;SDS011;8882;53.192;8.184;2023-08-30T04:35:51;8.27;;;7.30;;
17528;SDS011;8882;53.192;8.184;2023-08-30T04:38:17;10.67;;;7.57;;
17528;SDS011;8882;53.192;8.184;2023-08-30T04:40:42;10.23;;;7.60;;
17528;SDS011;8882;53.192;8.184;2023-08-30T04:43:08;9.00;;;7.00;;
17528;SDS011;8882;53.192;8.184;2023-08-30T04:45:34;9.93;;;7.80;;
17528;SDS011;8882;53.192;8.184;2023-08-30T04:48:00;11.17;;;7.90;;
17528;SDS011;8882;53.192;8.184;2023-08-30T04:50:25;11.80;;;8.10;;
17528;SDS011;8882;53.192;8.184;2023-08-30T04:52:51;10.43;;;8.10;;
17528;SDS011;8882;53.192;8.184;2023-08-30T04:55:16;9.63;;;8.43;;
17528;SDS011;8882;53.192;8.184;2023-08-30T04:57:42;10.77;;;8.57;;
17528;SDS011;8882;53.192;8.184;2023-08-30T05:00:10;11.30;;;8.30;;
17528;SDS011;8882;53.192;8.184;2023-08-30T05:02:36;9.40;;;8.00;;
17528;SDS011;8882;53.192;8.184;2023-08-30T05:05:02;10.90;;;8.33;;
17528;SDS011;8882;53.192;8.184;2023-08-30T05:07:28;10.40;;;8.30;;
17528;SDS011;8882;53.192;8.184;2023-08-30T05:09:53;9.63;;;8.33;;
17528;SDS011;8882;53.192;8.184;2023-08-30T05:12:19;11.40;;;9.10;;
17528;SDS011;8882;53.192;8.184;2023-08-30T05:14:44;9.37;;;8.37;;
17528;SDS011;8882;53.192;8.184;2023-08-30T05:17:10;10.63;;;7.47;;
17528;SDS011;8882;53.192;8.184;2023-08-30T05:19:35;8.37;;;7.20;;
17528;SDS011;8882;53.192;8.184;2023-08-30T05:22:01;8.43;;;7.27;;
17528;SDS011;8882;53.192;8.184;2023-08-30T05:24:26;11.93;;;8.47;;
17528;SDS011;8882;53.192;8.184;2023-08-30T05:26:53;9.70;;;8.17;;
17528;SDS011;8882;53.192;8.184;2023-08-30T05:29:18;9.67;;;8.30;;
17528;SDS011;8882;53.192;8.184;2023-08-30T05:31:44;10.37;;;8.30;;
17528;SDS011;8882;53.192;8.184;2023-08-30T05:34:10;12.20;;;9.10;;
17528;SDS011;8882;53.192;8.184;2023-08-30T05:36:36;11.53;;;8.67;;
17528;SDS011;8882;53.192;8.184;2023-08-30T05:39:01;11.57;;;9.23;;
17528;SDS011;8882;53.192;8.184;2023-08-30T05:41:28;11.13;;;8.80;;
17528;SDS011;8882;53.192;8.184;2023-08-30T05:43:54;11.90;;;9.73;;
17528;SDS011;8882;53.192;8.184;2023-08-30T05:46:19;11.77;;;8.67;;
17528;SDS011;8882;53.192;8.184;2023-08-30T05:48:45;12.63;;;7.57;;
17528;SDS011;8882;53.192;8.184;2023-08-30T05:51:10;13.50;;;9.20;;
17528;SDS011;8882;53.192;8.184;2023-08-30T05:53:36;9.83;;;8.80;;
17528;SDS011;8882;53.192;8.184;2023-08-30T05:56:02;11.73;;;8.87;;
17528;SDS011;8882;53.192;8.184;2023-08-30T05:58:27;14.40;;;9.23;;
17528;SDS011;8882;53.192;8.184;2023-08-30T06:00:54;13.50;;;9.23;;
17528;SDS011;8882;53.192;8.184;2023-08-30T06:03:21;13.50;;;10.47;;
17528;SDS011;8882;53.192;8.184;2023-08-30T06:05:47;12.77;;;10.33;;
17528;SDS011;8882;53.192;8.184;2023-08-30T06:08:13;13.37;;;9.80;;
17528;SDS011;8882;53.192;8.184;2023-08-30T06:10:39;13.20;;;9.53;;
17528;SDS011;8882;53.192;8.184;2023-08-30T06:13:05;12.37;;;9.40;;
17528;SDS011;8882;53.192;8.184;2023-08-30T06:15:30;12.13;;;9.97;;
17528;SDS011;8882;53.192;8.184;2023-08-30T06:17:56;12.60;;;9.47;;
17528;SDS011;8882;53.192;8.184;2023-08-30T06:20:21;13.97;;;10.10;;
17528;SDS011;8882;53.192;8.184;2023-08-30T06:22:47;13.97;;;9.37;;
17528;SDS011;8882;53.192;8.184;2023-08-30T06:25:12;13.90;;;9.33;;
17528;SDS011;8882;53.192;8.184;2023-08-30T06:27:40;11.57;;;9.00;;
17528;SDS011;8882;53.192;8.184;2023-08-30T06:30:08;11.67;;;8.97;;
17528;SDS011;8882;53.192;8.184;2023-08-30T06:32:34;11.30;;;8.90;;
17528;SDS011;8882;53.192;8.184;2023-08-30T06:35:00;15.83;;;9.83;;
17528;SDS011;8882;53.192;8.184;2023-08-30T06:37:26;12.47;;;8.67;;
17528;SDS011;8882;53.192;8.184;2023-08-30T06:39:51;12.57;;;9.70;;
17528;SDS011;8882;53.192;8.184;2023-08-30T06:42:16;11.70;;;9.30;;
17528;SDS011;8882;53.192;8.184;2023-08-30T06:44:42;12.20;;;8.50;;
17528;SDS011;8882;53.192;8.184;2023-08-30T06:47:08;10.23;;;8.17;;
17528;SDS011;8882;53.192;8.184;2023-08-30T06:49:33;13.00;;;9.13;;
17528;SDS011;8882;53.192;8.184;2023-08-30T06:51:59;11.30;;;8.97;;
17528;SDS011;8882;53.192;8.184;2023-08-30T06:54:29;11.57;;;8.97;;
17528;SDS011;8882;53.192;8.184;2023-08-30T06:56:58;11.27;;;8.53;;
17528;SDS011;8882;53.192;8.184;2023-08-30T06:59:25;11.47;;;9.37;;
17528;SDS011;8882;53.192;8.184;2023-08-30T07:01:51;12.00;;;8.53;;
17528;SDS011;8882;53.192;8.184;2023-08-30T07:04:16;10.10;;;8.37;;
17528;SDS011;8882;53.192;8.184;2023-08-30T07:06:42;12.60;;;8.57;;
17528;SDS011;8882;53.192;8.184;2023-08-30T07:09:07;9.97;;;8.10;;
17528;SDS011;8882;53.192;8.184;2023-08-30T07:11:33;12.30;;;9.20;;
17528;SDS011;8882;53.192;8.184;2023-08-30T07:13:59;14.47;;;8.50;;
17528;SDS011;8882;53.192;8.184;2023-08-30T07:16:25;8.90;;;7.83;;
17528;SDS011;8882;53.192;8.184;2023-08-30T07:18:50;10.00;;;7.73;;
17528;SDS011;8882;53.192;8.184;2023-08-30T07:21:16;12.20;;;7.97;;
17528;SDS011;8882;53.192;8.184;2023-08-30T07:23:41;10.07;;;7.67;;
17528;SDS011;8882;53.192;8.184;2023-08-30T07:26:07;11.30;;;8.10;;
17528;SDS011;8882;53.192;8.184;2023-08-30T07:28:32;10.80;;;7.67;;
17528;SDS011;8882;53.192;8.184;2023-08-30T07:31:04;10.73;;;6.87;;
17528;SDS011;8882;53.192;8.184;2023-08-30T07:33:30;10.73;;;7.47;;
17528;SDS011;8882;53.192;8.184;2023-08-30T07:35:55;10.10;;;7.13;;
17528;SDS011;8882;53.192;8.184;2023-08-30T07:38:21;9.67;;;6.77;;
17528;SDS011;8882;53.192;8.184;2023-08-30T07:40:47;8.77;;;7.03;;
17528;SDS011;8882;53.192;8.184;2023-08-30T07:43:12;9.73;;;6.73;;
17528;SDS011;8882;53.192;8.184;2023-08-30T07:45:38;9.30;;;6.87;;
17528;SDS011;8882;53.192;8.184;2023-08-30T07:48:03;8.43;;;6.43;;
17528;SDS011;8882;53.192;8.184;2023-08-30T07:50:29;11.17;;;6.30;;
17528;SDS011;8882;53.192;8.184;2023-08-30T07:52:54;9.50;;;6.47;;
17528;SDS011;8882;53.192;8.184;2023-08-30T07:55:20;8.97;;;5.90;;
17528;SDS011;8882;53.192;8.184;2023-08-30T07:57:45;10.17;;;6.13;;
17528;SDS011;8882;53.192;8.184;2023-08-30T08:00:11;12.57;;;6.47;;
17528;SDS011;8882;53.192;8.184;2023-08-30T08:02:37;8.73;;;6.10;;
17528;SDS011;8882;53.192;8.184;2023-08-30T08:05:04;6.97;;;5.43;;
17528;SDS011;8882;53.192;8.184;2023-08-30T08:07:29;8.87;;;6.10;;
17528;SDS011;8882;53.192;8.184;2023-08-30T08:09:56;7.63;;;5.70;;
17528;SDS011;8882;53.192;8.184;2023-08-30T08:12:22;8.57;;;5.97;;
17528;SDS011;8882;53.192;8.184;2023-08-30T08:14:47;9.00;;;5.67;;
17528;SDS011;8882;53.192;8.184;2023-08-30T08:17:13;6.97;;;6.00;;
17528;SDS011;8882;53.192;8.184;2023-08-30T08:19:38;7.67;;;5.77;;
17528;SDS011;8882;53.192;8.184;2023-08-30T08:22:05;7.77;;;5.60;;
17528;SDS011;8882;53.192;8.184;2023-08-30T08:24:31;9.37;;;5.53;;
17528;SDS011;8882;53.192;8.184;2023-08-30T08:26:56;6.73;;;5.53;;
17528;SDS011;8882;53.192;8.184;2023-08-30T08:29:22;6.90;;;5.20;;
17528;SDS011;8882;53.192;8.184;2023-08-30T08:31:47;8.80;;;5.80;;
17528;SDS011;8882;53.192;8.184;2023-08-30T08:34:13;7.60;;;6.07;;
17528;SDS011;8882;53.192;8.184;2023-08-30T08:36:39;9.53;;;5.87;;
17528;SDS011;8882;53.192;8.184;2023-08-30T08:39:06;6.53;;;5.57;;
17528;SDS011;8882;53.192;8.184;2023-08-30T08:41:39;8.97;;;6.17;;
17528;SDS011;8882;53.192;8.184;2023-08-30T08:44:07;8.57;;;5.90;;
17528;SDS011;8882;53.192;8.184;2023-08-30T08:46:34;7.73;;;5.90;;
17528;SDS011;8882;53.192;8.184;2023-08-30T08:49:11;9.17;;;5.70;;
17528;SDS011;8882;53.192;8.184;2023-08-30T08:51:41;6.87;;;5.40;;
17528;SDS011;8882;53.192;8.184;2023-08-30T08:54:08;7.37;;;5.70;;
17528;SDS011;8882;53.192;8.184;2023-08-30T08:56:34;7.53;;;5.63;;
17528;SDS011;8882;53.192;8.184;2023-08-30T08:59:00;7.83;;;5.43;;
17528;SDS011;8882;53.192;8.184;2023-08-30T09:01:26;8.03;;;5.60;;
17528;SDS011;8882;53.192;8.184;2023-08-30T09:03:52;6.97;;;4.97;;
17528;SDS011;8882;53.192;8.184;2023-08-30T09:06:18;8.30;;;5.50;;
17528;SDS011;8882;53.192;8.184;2023-08-30T09:08:43;7.70;;;5.70;;
17528;SDS011;8882;53.192;8.184;2023-08-30T09:11:09;10.37;;;5.63;;
17528;SDS011;8882;53.192;8.184;2023-08-30T09:13:35;9.50;;;5.63;;
17528;SDS011;8882;53.192;8.184;2023-08-30T09:16:00;9.33;;;5.97;;
17528;SDS011;8882;53.192;8.184;2023-08-30T09:18:27;8.23;;;5.83;;
17528;SDS011;8882;53.192;8.184;2023-08-30T09:21:04;6.63;;;5.20;;
17528;SDS011;8882;53.192;8.184;2023-08-30T09:23:30;9.63;;;5.97;;
17528;SDS011;8882;53.192;8.184;2023-08-30T09:25:56;7.00;;;5.47;;
17528;SDS011;8882;53.192;8.184;2023-08-30T09:28:21;7.00;;;4.67;;
17528;SDS011;8882;53.192;8.184;2023-08-30T09:30:50;7.70;;;4.37;;
17528;SDS011;8882;53.192;8.184;2023-08-30T09:33:20;8.67;;;5.40;;
17528;SDS011;8882;53.192;8.184;2023-08-30T09:35:47;6.60;;;4.73;;
17528;SDS011;8882;53.192;8.184;2023-08-30T09:38:18;7.77;;;4.87;;
17528;SDS011;8882;53.192;8.184;2023-08-30T09:40:44;9.07;;;5.70;;
17528;SDS011;8882;53.192;8.184;2023-08-30T09:43:10;8.57;;;5.57;;
17528;SDS011;8882;53.192;8.184;2023-08-30T09:45:36;7.23;;;5.13;;
17528;SDS011;8882;53.192;8.184;2023-08-30T09:48:02;8.43;;;5.33;;
17528;SDS011;8882;53.192;8.184;2023-08-30T09:50:29;6.30;;;5.40;;
17528;SDS011;8882;53.192;8.184;2023-08-30T09:53:00;7.27;;;5.67;;
17528;SDS011;8882;53.192;8.184;2023-08-30T09:55:33;8.27;;;4.67;;
17528;SDS011;8882;53.192;8.184;2023-08-30T09:57:59;7.57;;;5.27;;
17528;SDS011;8882;53.192;8.184;2023-08-30T10:00:26;7.03;;;4.70;;
17528;SDS011;8882;53.192;8.184;2023-08-30T10:02:52;5.97;;;4.80;;
17528;SDS011;8882;53.192;8.184;2023-08-30T10:05:19;6.27;;;4.57;;
17528;SDS011;8882;53.192;8.184;2023-08-30T10:07:45;7.27;;;4.03;;
17528;SDS011;8882;53.192;8.184;2023-08-30T10:10:11;6.10;;;4.33;;
17528;SDS011;8882;53.192;8.184;2023-08-30T10:12:37;6.50;;;4.50;;
17528;SDS011;8882;53.192;8.184;2023-08-30T10:15:05;5.33;;;3.40;;
17528;SDS011;8882;53.192;8.184;2023-08-30T10:17:32;8.20;;;4.40;;
17528;SDS011;8882;53.192;8.184;2023-08-30T10:19:59;7.37;;;4.67;;
17528;SDS011;8882;53.192;8.184;2023-08-30T10:22:29;7.83;;;5.00;;
17528;SDS011;8882;53.192;8.184;2023-08-30T10:24:58;8.10;;;4.83;;
17528;SDS011;8882;53.192;8.184;2023-08-30T10:27:27;7.13;;;4.97;;
17528;SDS011;8882;53.192;8.184;2023-08-30T10:29:59;9.43;;;4.77;;
17528;SDS011;8882;53.192;8.184;2023-08-30T10:32:28;8.67;;;5.53;;
17528;SDS011;8882;53.192;8.184;2023-08-30T10:34:54;6.63;;;4.77;;
17528;SDS011;8882;53.192;8.184;2023-08-30T10:37:22;7.87;;;4.77;;
17528;SDS011;8882;53.192;8.184;2023-08-30T10:39:49;5.87;;;4.87;;
17528;SDS011;8882;53.192;8.184;2023-08-30T10:42:15;6.93;;;5.03;;
17528;SDS011;8882;53.192;8.184;2023-08-30T10:47:36;7.10;;;5.13;;
17528;SDS011;8882;53.192;8.184;2023-08-30T10:50:09;6.90;;;5.53;;
17528;SDS011;8882;53.192;8.184;2023-08-30T10:52:36;6.47;;;4.97;;
17528;SDS011;8882;53.192;8.184;2023-08-30T10:55:05;14.70;;;5.37;;
17528;SDS011;8882;53.192;8.184;2023-08-30T10:57:33;8.70;;;5.97;;
17528;SDS011;8882;53.192;8.184;2023-08-30T11:02:30;8.20;;;5.83;;
17528;SDS011;8882;53.192;8.184;2023-08-30T11:04:57;7.17;;;5.70;;
17528;SDS011;8882;53.192;8.184;2023-08-30T11:07:27;12.03;;;6.30;;
17528;SDS011;8882;53.192;8.184;2023-08-30T11:09:52;7.87;;;5.37;;
17528;SDS011;8882;53.192;8.184;2023-08-30T11:12:18;10.90;;;5.90;;
17528;SDS011;8882;53.192;8.184;2023-08-30T11:14:44;8.87;;;4.87;;
17528;SDS011;8882;53.192;8.184;2023-08-30T11:17:10;9.10;;;5.63;;
17528;SDS011;8882;53.192;8.184;2023-08-30T11:19:35;7.13;;;5.60;;
17528;SDS011;8882;53.192;8.184;2023-08-30T11:22:01;8.80;;;5.67;;
17528;SDS011;8882;53.192;8.184;2023-08-30T11:24:26;11.67;;;6.23;;
17528;SDS011;8882;53.192;8.184;2023-08-30T11:26:52;8.23;;;6.70;;
17528;SDS011;8882;53.192;8.184;2023-08-30T11:29:21;9.40;;;6.33;;
17528;SDS011;8882;53.192;8.184;2023-08-30T11:31:47;8.27;;;6.07;;
17528;SDS011;8882;53.192;8.184;2023-08-30T11:34:14;9.63;;;6.30;;
17528;SDS011;8882;53.192;8.184;2023-08-30T11:36:39;9.10;;;6.10;;
17528;SDS011;8882;53.192;8.184;2023-08-30T11:39:05;10.33;;;6.53;;
17528;SDS011;8882;53.192;8.184;2023-08-30T11:41:32;14.63;;;7.33;;
17528;SDS011;8882;53.192;8.184;2023-08-30T11:43:58;9.40;;;6.60;;
17528;SDS011;8882;53.192;8.184;2023-08-30T11:46:24;9.70;;;6.60;;
17528;SDS011;8882;53.192;8.184;2023-08-30T11:48:50;10.43;;;6.67;;
17528;SDS011;8882;53.192;8.184;2023-08-30T11:51:16;10.20;;;6.97;;
17528;SDS011;8882;53.192;8.184;2023-08-30T11:53:43;12.93;;;7.20;;
17528;SDS011;8882;53.192;8.184;2023-08-30T11:56:10;8.40;;;6.60;;
17528;SDS011;8882;53.192;8.184;2023-08-30T11:58:36;7.80;;;6.40;;
17528;SDS011;8882;53.192;8.184;2023-08-30T12:01:03;10.70;;;6.83;;
17528;SDS011;8882;53.192;8.184;2023-08-30T12:03:30;11.30;;;7.00;;
17528;SDS011;8882;53.192;8.184;2023-08-30T12:05:56;11.30;;;7.70;;
17528;SDS011;8882;53.192;8.184;2023-08-30T12:08:26;10.73;;;7.40;;
17528;SDS011;8882;53.192;8.184;2023-08-30T12:10:56;10.57;;;7.70;;
17528;SDS011;8882;53.192;8.184;2023-08-30T12:13:26;12.43;;;7.10;;
17528;SDS011;8882;53.192;8.184;2023-08-30T12:15:53;12.63;;;6.83;;
17528;SDS011;8882;53.192;8.184;2023-08-30T12:18:23;9.53;;;7.13;;
17528;SDS011;8882;53.192;8.184;2023-08-30T12:20:55;9.67;;;6.40;;
17528;SDS011;8882;53.192;8.184;2023-08-30T12:23:26;11.57;;;7.13;;
17528;SDS011;8882;53.192;8.184;2023-08-30T12:26:06;8.20;;;7.10;;
17528;SDS011;8882;53.192;8.184;2023-08-30T12:28:33;9.27;;;6.53;;
17528;SDS011;8882;53.192;8.184;2023-08-30T12:31:00;11.47;;;6.47;;
17528;SDS011;8882;53.192;8.184;2023-08-30T12:33:26;8.50;;;6.30;;
17528;SDS011;8882;53.192;8.184;2023-08-30T12:35:53;12.37;;;6.40;;
17528;SDS011;8882;53.192;8.184;2023-08-30T12:38:19;11.10;;;6.57;;
17528;SDS011;8882;53.192;8.184;2023-08-30T12:40:45;11.30;;;7.33;;
17528;SDS011;8882;53.192;8.184;2023-08-30T12:43:15;10.97;;;6.97;;
17528;SDS011;8882;53.192;8.184;2023-08-30T12:45:42;9.93;;;7.13;;
17528;SDS011;8882;53.192;8.184;2023-08-30T12:48:09;9.30;;;6.90;;
17528;SDS011;8882;53.192;8.184;2023-08-30T12:50:36;10.47;;;6.93;;
17528;SDS011;8882;53.192;8.184;2023-08-30T12:53:03;10.67;;;7.77;;
17528;SDS011;8882;53.192;8.184;2023-08-30T12:55:29;9.20;;;7.13;;
17528;SDS011;8882;53.192;8.184;2023-08-30T12:57:55;12.07;;;7.80;;
17528;SDS011;8882;53.192;8.184;2023-08-30T13:00:21;11.43;;;7.63;;
17528;SDS011;8882;53.192;8.184;2023-08-30T13:02:47;11.90;;;8.77;;
17528;SDS011;8882;53.192;8.184;2023-08-30T13:05:13;12.47;;;8.50;;
17528;SDS011;8882;53.192;8.184;2023-08-30T13:07:38;13.03;;;8.70;;
17528;SDS011;8882;53.192;8.184;2023-08-30T13:10:04;14.73;;;10.23;;
17528;SDS011;8882;53.192;8.184;2023-08-30T13:12:31;16.90;;;11.30;;
17528;SDS011;8882;53.192;8.184;2023-08-30T13:14:56;17.07;;;10.90;;
17528;SDS011;8882;53.192;8.184;2023-08-30T13:17:22;15.17;;;11.43;;
17528;SDS011;8882;53.192;8.184;2023-08-30T13:19:47;16.50;;;11.30;;
17528;SDS011;8882;53.192;8.184;2023-08-30T13:22:14;13.40;;;10.57;;
17528;SDS011;8882;53.192;8.184;2023-08-30T13:24:39;14.93;;;11.37;;
17528;SDS011;8882;53.192;8.184;2023-08-30T13:27:05;20.33;;;12.40;;
17528;SDS011;8882;53.192;8.184;2023-08-30T13:29:31;19.07;;;13.13;;
17528;SDS011;8882;53.192;8.184;2023-08-30T13:31:56;17.00;;;12.90;;
17528;SDS011;8882;53.192;8.184;2023-08-30T13:34:22;16.57;;;12.73;;
17528;SDS011;8882;53.192;8.184;2023-08-30T13:36:47;19.87;;;13.27;;
17528;SDS011;8882;53.192;8.184;2023-08-30T13:39:13;21.53;;;13.27;;
17528;SDS011;8882;53.192;8.184;2023-08-30T13:41:39;17.63;;;13.10;;
17528;SDS011;8882;53.192;8.184;2023-08-30T13:44:05;18.77;;;13.67;;
17528;SDS011;8882;53.192;8.184;2023-08-30T13:46:31;21.83;;;13.83;;
17528;SDS011;8882;53.192;8.184;2023-08-30T13:48:56;20.20;;;14.27;;
17528;SDS011;8882;53.192;8.184;2023-08-30T13:51:23;20.10;;;13.40;;
17528;SDS011;8882;53.192;8.184;2023-08-30T13:53:52;18.03;;;13.50;;
17528;SDS011;8882;53.192;8.184;2023-08-30T13:56:18;19.83;;;13.90;;
17528;SDS011;8882;53.192;8.184;2023-08-30T13:58:44;21.53;;;14.40;;
17528;SDS011;8882;53.192;8.184;2023-08-30T14:01:10;22.00;;;15.73;;
17528;SDS011;8882;53.192;8.184;2023-08-30T14:03:36;19.03;;;15.20;;
17528;SDS011;8882;53.192;8.184;2023-08-30T14:06:01;21.20;;;15.80;;
17528;SDS011;8882;53.192;8.184;2023-08-30T14:08:27;20.30;;;15.43;;
17528;SDS011;8882;53.192;8.184;2023-08-30T14:10:54;21.50;;;16.27;;
17528;SDS011;8882;53.192;8.184;2023-08-30T14:13:19;20.50;;;15.50;;
17528;SDS011;8882;53.192;8.184;2023-08-30T14:15:45;22.33;;;15.57;;
17528;SDS011;8882;53.192;8.184;2023-08-30T14:18:11;20.17;;;15.23;;
17528;SDS011;8882;53.192;8.184;2023-08-30T14:20:36;23.30;;;16.97;;
17528;SDS011;8882;53.192;8.184;2023-08-30T14:23:02;22.10;;;16.40;;
17528;SDS011;8882;53.192;8.184;2023-08-30T14:25:28;23.37;;;17.23;;
17528;SDS011;8882;53.192;8.184;2023-08-30T14:27:54;23.17;;;16.90;;
17528;SDS011;8882;53.192;8.184;2023-08-30T14:30:20;24.87;;;17.70;;
17528;SDS011;8882;53.192;8.184;2023-08-30T14:32:46;23.47;;;17.20;;
17528;SDS011;8882;53.192;8.184;2023-08-30T14:35:12;25.67;;;17.83;;
17528;SDS011;8882;53.192;8.184;2023-08-30T14:37:37;23.13;;;16.37;;
17528;SDS011;8882;53.192;8.184;2023-08-30T14:40:04;25.00;;;17.50;;
17528;SDS011;8882;53.192;8.184;2023-08-30T14:42:30;21.90;;;15.90;;
17528;SDS011;8882;53.192;8.184;2023-08-30T14:44:57;21.27;;;15.87;;
17528;SDS011;8882;53.192;8.184;2023-08-30T14:47:22;20.77;;;15.63;;
17528;SDS011;8882;53.192;8.184;2023-08-30T14:49:48;19.10;;;14.73;;
17528;SDS011;8882;53.192;8.184;2023-08-30T14:52:14;18.90;;;14.33;;
17528;SDS011;8882;53.192;8.184;2023-08-30T14:54:40;18.03;;;13.53;;
17528;SDS011;8882;53.192;8.184;2023-08-30T14:57:06;18.83;;;13.87;;
17528;SDS011;8882;53.192;8.184;2023-08-30T14:59:32;15.63;;;12.23;;